Alto Paraguai, Brazil
Current Conditions -  °F | °C
As of 1:00 PM on Friday 24 Oct 2014 (Local Time) from SBCY Reporting Station
Broken Clouds Broken Clouds  
Wind Chill: 93°   Ceiling: 10000
Heat Index: 97°   Visibility: 6mi
Dew Point: 68°   Wind: 6mph
Humidity: 44%   Direction: 60°ENE
Pressure: 29.88"   Gusts: NA
Location:  14.51°S, 56.48°W
Report Text: SBCY 241600Z 06005KT 9999 SCT020 BKN100 34/20 Q1012
Loading
Personal Weather Stations






























Interactive Weather Map
Tropical Storm Tracking
New forecast layout! Learn more

10-Day Weather Forecast

Advertisements
Track Severe Weather on mobile